תחנות METAR סמוכות

 

LLBG - Ben-Gurion(Civ/M, Israel
Distance from station: 'מ 83km
עודכן: 05/10/2022 15:50
בהיר
בהיר
 רוח מ 'מצמ
רוח: 'מצמ 17 km/h
טמפרטורה: 29°C
עומס חום: 31°C
נקודת הטל: 20°C
לחות: 58%
ברומטר: 1014 hPa
סיכום: בהיר
ראות: greater than 10 km
2022/10/05 12:50 LLBG 051250Z 30009KT CAVOK 29/20 Q1014 NOSIG
LLSD - Sde Dov Airport, Israel
Distance from station: 'מ 75km
עודכן: 30/06/2019 23:50
לא מעודכן
מעונן חלקית
מעונן חלקית
 רוח מ משתנה
רוח: משתנה 6 km/h
טמפרטורה: 27°C
עומס חום: 30°C
נקודת הטל: 23°C
לחות: 79%
ברומטר: 1007 hPa
עננים: מעונן חלקית
ראות: 10 km
Cloud details: מעונן חלקית 518 m
2019/06/30 20:50 LLSD 302050Z VRB03KT 9999 SCT017 27/23 Q1007
 
LLHA - Haifa (isr-Afb), Israel
Distance from station: 'צמ 129km
עודכן: 04/10/2022 12:50
לא מעודכן
Few Clouds
Few Clouds
 רוח מ 'מ
רוח: 'מ 15 km/h
טמפרטורה: 30°C
עומס חום: 32°C
נקודת הטל: 20°C
לחות: 55%
ברומטר: 1009 hPa
עננים: Few Clouds
ראות: 10 km
Cloud details: Few Clouds 1219 m
2022/10/04 09:50 LLHA 040950Z 26008KT 9999 FEW040 30/20 Q1009
LLIB - Ben Ya Akov, Israel
Distance from station: 'צמ 183km
עודכן: 04/10/2022 12:50
לא מעודכן
בהיר
בהיר
 רוח מ 'מדמ
רוח: 'מדמ 11 km/h
טמפרטורה: 30°C
עומס חום: 31°C
נקודת הטל: 18°C
לחות: 49%
ברומטר: 1010 hPa
סיכום: בהיר
ראות: greater than 10 km
2022/10/04 09:50 LLIB 040950Z AUTO 12006KT 080V150 CAVOK 30/18 Q1010
 
LLOV - Ovda (isr-Afb/Ci, Israel
Distance from station: 'דדמ 246km
עודכן: 31/03/2019 22:50
לא מעודכן
בהיר
בהיר
 רוח מ 'מדמ
רוח: 'מדמ 13 km/h
טמפרטורה: 12°C
נקודת הטל: 0°C
לחות: 44%
ברומטר: 1012 hPa
סיכום: בהיר
ראות: greater than 10 km
2019/03/31 19:50 LLOV 311950Z 24007KT CAVOK 12/00 Q1012
LLET - Elat/J. Hozman(A, Israel
Distance from station: 'דדמ 287km
עודכן: 18/03/2019 17:50
לא מעודכן
בהיר
בהיר
 רוח מ 'צצמ
רוח: 'צצמ 30 km/h
טמפרטורה: 24°C
נקודת הטל: -1°C
לחות: 19%
ברומטר: 1016 hPa
סיכום: בהיר
ראות: greater than 10 km
2019/03/18 15:50 LLET 181550Z 02016KT CAVOK 24/M01 Q1016
 
LCLK - Larnaca/Larnax A, Cyprus
Distance from station: 'צ 321km
עודכן: 05/10/2022 15:30
Few Clouds
Few Clouds
 רוח מ 'ד
רוח: 'ד 28 km/h
טמפרטורה: 31°C
עומס חום: 34°C
נקודת הטל: 21°C
לחות: 55%
ברומטר: 1013 hPa
עננים: Few Clouds
ראות: 10 km
Cloud details: Few Clouds 762 m
Few Clouds 914 m
Few Clouds 1067 m
2022/10/05 12:30 LCLK 051230Z 19015KT 9999 FEW025 FEW030TCU FEW035CB 31/21 Q1013 NOSIG